sensor_id;sensor_type;location;lat;lon;timestamp;P1;durP1;ratioP1;P2;durP2;ratioP2
17763;SDS011;22245;52.832;13.816;2023-08-06T00:00:33;10.50;;;6.30;;
17763;SDS011;22245;52.832;13.816;2023-08-06T00:03:55;7.63;;;6.28;;
17763;SDS011;22245;52.832;13.816;2023-08-06T00:07:17;12.55;;;6.70;;
17763;SDS011;22245;52.832;13.816;2023-08-06T00:10:40;9.43;;;6.78;;
17763;SDS011;22245;52.832;13.816;2023-08-06T00:14:02;8.60;;;6.70;;
17763;SDS011;22245;52.832;13.816;2023-08-06T00:17:23;8.13;;;7.05;;
17763;SDS011;22245;52.832;13.816;2023-08-06T00:20:45;8.15;;;6.82;;
17763;SDS011;22245;52.832;13.816;2023-08-06T00:24:07;8.52;;;7.32;;
17763;SDS011;22245;52.832;13.816;2023-08-06T00:27:30;9.45;;;6.80;;
17763;SDS011;22245;52.832;13.816;2023-08-06T00:30:53;7.80;;;6.00;;
17763;SDS011;22245;52.832;13.816;2023-08-06T00:34:15;7.35;;;5.97;;
17763;SDS011;22245;52.832;13.816;2023-08-06T00:37:37;10.00;;;6.57;;
17763;SDS011;22245;52.832;13.816;2023-08-06T00:40:58;9.25;;;6.13;;
17763;SDS011;22245;52.832;13.816;2023-08-06T00:44:21;7.32;;;6.30;;
17763;SDS011;22245;52.832;13.816;2023-08-06T00:47:43;10.13;;;7.28;;
17763;SDS011;22245;52.832;13.816;2023-08-06T00:51:06;10.32;;;7.28;;
17763;SDS011;22245;52.832;13.816;2023-08-06T00:54:28;9.82;;;7.53;;
17763;SDS011;22245;52.832;13.816;2023-08-06T00:57:50;13.30;;;6.70;;
17763;SDS011;22245;52.832;13.816;2023-08-06T01:01:14;7.97;;;5.88;;
17763;SDS011;22245;52.832;13.816;2023-08-06T01:04:36;8.73;;;5.72;;
17763;SDS011;22245;52.832;13.816;2023-08-06T01:08:02;9.18;;;6.07;;
17763;SDS011;22245;52.832;13.816;2023-08-06T01:11:38;10.25;;;6.03;;
17763;SDS011;22245;52.832;13.816;2023-08-06T01:15:07;9.43;;;5.68;;
17763;SDS011;22245;52.832;13.816;2023-08-06T01:18:34;7.28;;;6.00;;
17763;SDS011;22245;52.832;13.816;2023-08-06T01:21:59;9.10;;;6.15;;
17763;SDS011;22245;52.832;13.816;2023-08-06T01:25:21;8.95;;;6.07;;
17763;SDS011;22245;52.832;13.816;2023-08-06T01:28:51;10.30;;;6.25;;
17763;SDS011;22245;52.832;13.816;2023-08-06T01:32:20;9.45;;;7.07;;
17763;SDS011;22245;52.832;13.816;2023-08-06T01:35:43;8.68;;;7.13;;
17763;SDS011;22245;52.832;13.816;2023-08-06T01:39:06;8.48;;;7.57;;
17763;SDS011;22245;52.832;13.816;2023-08-06T01:42:28;9.88;;;7.80;;
17763;SDS011;22245;52.832;13.816;2023-08-06T01:45:49;12.27;;;8.23;;
17763;SDS011;22245;52.832;13.816;2023-08-06T01:49:11;10.10;;;7.85;;
17763;SDS011;22245;52.832;13.816;2023-08-06T01:52:33;7.70;;;6.95;;
17763;SDS011;22245;52.832;13.816;2023-08-06T01:55:55;12.00;;;8.30;;
17763;SDS011;22245;52.832;13.816;2023-08-06T01:59:17;13.10;;;8.68;;
17763;SDS011;22245;52.832;13.816;2023-08-06T02:02:39;10.70;;;8.23;;
17763;SDS011;22245;52.832;13.816;2023-08-06T02:06:02;12.00;;;8.02;;
17763;SDS011;22245;52.832;13.816;2023-08-06T02:09:24;10.13;;;8.55;;
17763;SDS011;22245;52.832;13.816;2023-08-06T02:12:47;9.35;;;8.15;;
17763;SDS011;22245;52.832;13.816;2023-08-06T02:16:09;10.73;;;8.57;;
17763;SDS011;22245;52.832;13.816;2023-08-06T02:19:31;10.73;;;8.43;;
17763;SDS011;22245;52.832;13.816;2023-08-06T02:22:52;10.00;;;8.60;;
17763;SDS011;22245;52.832;13.816;2023-08-06T02:26:14;10.57;;;8.57;;
17763;SDS011;22245;52.832;13.816;2023-08-06T02:29:36;9.55;;;8.02;;
17763;SDS011;22245;52.832;13.816;2023-08-06T02:32:58;9.45;;;7.97;;
17763;SDS011;22245;52.832;13.816;2023-08-06T02:36:20;9.25;;;8.07;;
17763;SDS011;22245;52.832;13.816;2023-08-06T02:39:41;9.15;;;7.90;;
17763;SDS011;22245;52.832;13.816;2023-08-06T02:43:03;9.07;;;7.88;;
17763;SDS011;22245;52.832;13.816;2023-08-06T02:46:27;10.05;;;7.65;;
17763;SDS011;22245;52.832;13.816;2023-08-06T02:49:49;9.27;;;7.50;;
17763;SDS011;22245;52.832;13.816;2023-08-06T02:53:12;10.02;;;7.57;;
17763;SDS011;22245;52.832;13.816;2023-08-06T02:56:34;9.10;;;7.22;;
17763;SDS011;22245;52.832;13.816;2023-08-06T03:00:07;9.75;;;7.47;;
17763;SDS011;22245;52.832;13.816;2023-08-06T03:03:33;11.50;;;7.32;;
17763;SDS011;22245;52.832;13.816;2023-08-06T03:06:57;8.27;;;7.07;;
17763;SDS011;22245;52.832;13.816;2023-08-06T03:10:26;7.65;;;6.85;;
17763;SDS011;22245;52.832;13.816;2023-08-06T03:13:51;8.52;;;6.65;;
17763;SDS011;22245;52.832;13.816;2023-08-06T03:17:13;9.13;;;6.65;;
17763;SDS011;22245;52.832;13.816;2023-08-06T03:20:36;9.35;;;7.10;;
17763;SDS011;22245;52.832;13.816;2023-08-06T03:23:58;8.38;;;6.88;;
17763;SDS011;22245;52.832;13.816;2023-08-06T03:27:23;9.23;;;6.75;;
17763;SDS011;22245;52.832;13.816;2023-08-06T03:30:45;8.82;;;6.43;;
17763;SDS011;22245;52.832;13.816;2023-08-06T03:34:07;12.23;;;7.60;;
17763;SDS011;22245;52.832;13.816;2023-08-06T03:37:30;7.28;;;6.38;;
17763;SDS011;22245;52.832;13.816;2023-08-06T03:40:51;7.47;;;6.03;;
17763;SDS011;22245;52.832;13.816;2023-08-06T03:44:13;8.20;;;6.40;;
17763;SDS011;22245;52.832;13.816;2023-08-06T03:47:36;7.85;;;6.20;;
17763;SDS011;22245;52.832;13.816;2023-08-06T03:50:58;6.78;;;5.88;;
17763;SDS011;22245;52.832;13.816;2023-08-06T03:54:23;7.03;;;5.72;;
17763;SDS011;22245;52.832;13.816;2023-08-06T03:57:45;6.95;;;5.82;;
17763;SDS011;22245;52.832;13.816;2023-08-06T04:01:08;8.75;;;6.25;;
17763;SDS011;22245;52.832;13.816;2023-08-06T04:04:38;8.50;;;6.13;;
17763;SDS011;22245;52.832;13.816;2023-08-06T04:07:59;7.50;;;6.43;;
17763;SDS011;22245;52.832;13.816;2023-08-06T04:11:23;9.25;;;6.38;;
17763;SDS011;22245;52.832;13.816;2023-08-06T04:14:44;7.07;;;6.30;;
17763;SDS011;22245;52.832;13.816;2023-08-06T04:18:06;10.00;;;7.10;;
17763;SDS011;22245;52.832;13.816;2023-08-06T04:21:28;9.18;;;6.70;;
17763;SDS011;22245;52.832;13.816;2023-08-06T04:24:50;7.40;;;6.22;;
17763;SDS011;22245;52.832;13.816;2023-08-06T04:28:13;8.32;;;6.30;;
17763;SDS011;22245;52.832;13.816;2023-08-06T04:31:35;6.70;;;5.57;;
17763;SDS011;22245;52.832;13.816;2023-08-06T04:34:58;6.78;;;6.00;;
17763;SDS011;22245;52.832;13.816;2023-08-06T04:38:19;6.90;;;6.20;;
17763;SDS011;22245;52.832;13.816;2023-08-06T04:41:41;7.45;;;6.65;;
17763;SDS011;22245;52.832;13.816;2023-08-06T04:45:06;7.43;;;6.50;;
17763;SDS011;22245;52.832;13.816;2023-08-06T04:48:28;10.02;;;7.05;;
17763;SDS011;22245;52.832;13.816;2023-08-06T04:51:50;7.93;;;6.63;;
17763;SDS011;22245;52.832;13.816;2023-08-06T04:55:12;10.38;;;6.95;;
17763;SDS011;22245;52.832;13.816;2023-08-06T04:58:33;7.63;;;6.60;;
17763;SDS011;22245;52.832;13.816;2023-08-06T05:02:00;8.30;;;6.38;;
17763;SDS011;22245;52.832;13.816;2023-08-06T05:05:22;8.27;;;6.65;;
17763;SDS011;22245;52.832;13.816;2023-08-06T05:08:43;8.85;;;7.93;;
17763;SDS011;22245;52.832;13.816;2023-08-06T05:12:06;10.43;;;8.15;;
17763;SDS011;22245;52.832;13.816;2023-08-06T05:15:28;9.90;;;8.10;;
17763;SDS011;22245;52.832;13.816;2023-08-06T05:18:51;11.38;;;8.50;;
17763;SDS011;22245;52.832;13.816;2023-08-06T05:22:13;9.77;;;8.27;;
17763;SDS011;22245;52.832;13.816;2023-08-06T05:25:34;10.32;;;7.82;;
17763;SDS011;22245;52.832;13.816;2023-08-06T05:28:56;10.77;;;8.15;;
17763;SDS011;22245;52.832;13.816;2023-08-06T05:32:17;11.65;;;8.60;;
17763;SDS011;22245;52.832;13.816;2023-08-06T05:35:41;12.90;;;8.40;;
17763;SDS011;22245;52.832;13.816;2023-08-06T05:39:03;10.35;;;8.60;;
17763;SDS011;22245;52.832;13.816;2023-08-06T05:42:25;9.93;;;8.40;;
17763;SDS011;22245;52.832;13.816;2023-08-06T05:45:46;10.02;;;8.35;;
17763;SDS011;22245;52.832;13.816;2023-08-06T05:49:10;12.40;;;8.30;;
17763;SDS011;22245;52.832;13.816;2023-08-06T05:52:34;9.63;;;7.40;;
17763;SDS011;22245;52.832;13.816;2023-08-06T05:55:56;9.95;;;7.47;;
17763;SDS011;22245;52.832;13.816;2023-08-06T05:59:18;11.13;;;7.50;;
17763;SDS011;22245;52.832;13.816;2023-08-06T06:02:40;9.73;;;7.32;;
17763;SDS011;22245;52.832;13.816;2023-08-06T06:06:01;10.80;;;7.53;;
17763;SDS011;22245;52.832;13.816;2023-08-06T06:09:24;9.23;;;7.70;;
17763;SDS011;22245;52.832;13.816;2023-08-06T06:12:46;9.25;;;7.78;;
17763;SDS011;22245;52.832;13.816;2023-08-06T06:16:07;8.65;;;7.05;;
17763;SDS011;22245;52.832;13.816;2023-08-06T06:19:29;11.23;;;7.82;;
17763;SDS011;22245;52.832;13.816;2023-08-06T06:22:51;12.77;;;8.02;;
17763;SDS011;22245;52.832;13.816;2023-08-06T06:26:14;10.60;;;7.68;;
17763;SDS011;22245;52.832;13.816;2023-08-06T06:29:35;10.48;;;7.80;;
17763;SDS011;22245;52.832;13.816;2023-08-06T06:32:57;9.90;;;7.82;;
17763;SDS011;22245;52.832;13.816;2023-08-06T06:36:19;10.35;;;8.38;;
17763;SDS011;22245;52.832;13.816;2023-08-06T06:39:40;10.57;;;8.00;;
17763;SDS011;22245;52.832;13.816;2023-08-06T06:43:03;9.63;;;8.35;;
17763;SDS011;22245;52.832;13.816;2023-08-06T06:46:26;10.15;;;7.30;;
17763;SDS011;22245;52.832;13.816;2023-08-06T06:49:47;9.25;;;7.47;;
17763;SDS011;22245;52.832;13.816;2023-08-06T06:53:09;9.95;;;7.38;;
17763;SDS011;22245;52.832;13.816;2023-08-06T06:56:30;8.68;;;7.50;;
17763;SDS011;22245;52.832;13.816;2023-08-06T06:59:53;8.65;;;7.20;;
17763;SDS011;22245;52.832;13.816;2023-08-06T07:03:14;10.75;;;8.38;;
17763;SDS011;22245;52.832;13.816;2023-08-06T07:06:36;10.52;;;7.75;;
17763;SDS011;22245;52.832;13.816;2023-08-06T07:09:58;10.35;;;7.95;;
17763;SDS011;22245;52.832;13.816;2023-08-06T07:13:19;10.80;;;8.05;;
17763;SDS011;22245;52.832;13.816;2023-08-06T07:16:44;9.70;;;7.45;;
17763;SDS011;22245;52.832;13.816;2023-08-06T07:20:06;10.55;;;8.43;;
17763;SDS011;22245;52.832;13.816;2023-08-06T07:23:29;9.65;;;7.90;;
17763;SDS011;22245;52.832;13.816;2023-08-06T07:26:50;10.85;;;8.20;;
17763;SDS011;22245;52.832;13.816;2023-08-06T07:30:12;9.15;;;7.47;;
17763;SDS011;22245;52.832;13.816;2023-08-06T07:33:35;10.10;;;8.05;;
17763;SDS011;22245;52.832;13.816;2023-08-06T07:36:57;10.25;;;7.93;;
17763;SDS011;22245;52.832;13.816;2023-08-06T07:40:18;11.82;;;7.75;;
17763;SDS011;22245;52.832;13.816;2023-08-06T07:43:39;12.63;;;8.60;;
17763;SDS011;22245;52.832;13.816;2023-08-06T07:47:02;11.50;;;9.13;;
17763;SDS011;22245;52.832;13.816;2023-08-06T07:50:25;11.68;;;8.85;;
17763;SDS011;22245;52.832;13.816;2023-08-06T07:53:47;11.02;;;8.35;;
17763;SDS011;22245;52.832;13.816;2023-08-06T07:57:09;12.63;;;9.40;;
17763;SDS011;22245;52.832;13.816;2023-08-06T08:00:31;13.77;;;9.07;;
17763;SDS011;22245;52.832;13.816;2023-08-06T08:03:53;11.48;;;9.38;;
17763;SDS011;22245;52.832;13.816;2023-08-06T08:07:16;11.18;;;8.75;;
17763;SDS011;22245;52.832;13.816;2023-08-06T08:10:38;11.00;;;9.10;;
17763;SDS011;22245;52.832;13.816;2023-08-06T08:13:59;12.63;;;9.10;;
17763;SDS011;22245;52.832;13.816;2023-08-06T08:17:21;10.23;;;8.48;;
17763;SDS011;22245;52.832;13.816;2023-08-06T08:20:42;17.98;;;9.65;;
17763;SDS011;22245;52.832;13.816;2023-08-06T08:24:06;11.32;;;9.20;;
17763;SDS011;22245;52.832;13.816;2023-08-06T08:27:28;11.35;;;8.82;;
17763;SDS011;22245;52.832;13.816;2023-08-06T08:30:49;11.25;;;9.32;;
17763;SDS011;22245;52.832;13.816;2023-08-06T08:34:11;10.15;;;8.65;;
17763;SDS011;22245;52.832;13.816;2023-08-06T08:37:33;13.02;;;8.95;;
17763;SDS011;22245;52.832;13.816;2023-08-06T08:40:55;10.90;;;9.10;;
17763;SDS011;22245;52.832;13.816;2023-08-06T08:44:17;12.05;;;9.35;;
17763;SDS011;22245;52.832;13.816;2023-08-06T08:47:39;11.77;;;9.73;;
17763;SDS011;22245;52.832;13.816;2023-08-06T08:51:02;12.35;;;9.32;;
17763;SDS011;22245;52.832;13.816;2023-08-06T08:54:25;11.55;;;9.63;;
17763;SDS011;22245;52.832;13.816;2023-08-06T08:57:49;11.50;;;9.52;;
17763;SDS011;22245;52.832;13.816;2023-08-06T09:01:11;10.75;;;8.98;;
17763;SDS011;22245;52.832;13.816;2023-08-06T09:04:34;11.15;;;9.50;;
17763;SDS011;22245;52.832;13.816;2023-08-06T09:07:58;12.45;;;10.15;;
17763;SDS011;22245;52.832;13.816;2023-08-06T09:11:23;12.00;;;9.00;;
17763;SDS011;22245;52.832;13.816;2023-08-06T09:14:46;12.50;;;9.55;;
17763;SDS011;22245;52.832;13.816;2023-08-06T09:18:09;11.05;;;9.18;;
17763;SDS011;22245;52.832;13.816;2023-08-06T09:21:31;12.68;;;9.90;;
17763;SDS011;22245;52.832;13.816;2023-08-06T09:24:53;10.48;;;8.93;;
17763;SDS011;22245;52.832;13.816;2023-08-06T09:28:14;9.45;;;8.35;;
17763;SDS011;22245;52.832;13.816;2023-08-06T09:31:41;12.23;;;8.45;;
17763;SDS011;22245;52.832;13.816;2023-08-06T09:35:03;12.40;;;8.35;;
17763;SDS011;22245;52.832;13.816;2023-08-06T09:38:26;9.68;;;7.68;;
17763;SDS011;22245;52.832;13.816;2023-08-06T09:41:59;9.60;;;7.13;;
17763;SDS011;22245;52.832;13.816;2023-08-06T09:45:22;9.52;;;7.60;;
17763;SDS011;22245;52.832;13.816;2023-08-06T09:48:46;11.00;;;7.47;;
17763;SDS011;22245;52.832;13.816;2023-08-06T09:52:10;9.32;;;6.90;;
17763;SDS011;22245;52.832;13.816;2023-08-06T09:55:33;7.53;;;6.43;;
17763;SDS011;22245;52.832;13.816;2023-08-06T09:58:55;9.27;;;6.60;;
17763;SDS011;22245;52.832;13.816;2023-08-06T10:02:18;8.23;;;6.63;;
17763;SDS011;22245;52.832;13.816;2023-08-06T10:05:44;9.48;;;6.93;;
17763;SDS011;22245;52.832;13.816;2023-08-06T10:09:08;9.77;;;6.85;;
17763;SDS011;22245;52.832;13.816;2023-08-06T10:12:31;9.05;;;7.05;;
17763;SDS011;22245;52.832;13.816;2023-08-06T10:15:55;7.90;;;5.95;;
17763;SDS011;22245;52.832;13.816;2023-08-06T10:19:17;7.57;;;5.97;;
17763;SDS011;22245;52.832;13.816;2023-08-06T10:22:43;7.57;;;5.78;;
17763;SDS011;22245;52.832;13.816;2023-08-06T10:26:05;9.57;;;6.32;;
17763;SDS011;22245;52.832;13.816;2023-08-06T10:29:36;8.90;;;6.45;;
17763;SDS011;22245;52.832;13.816;2023-08-06T10:32:59;9.15;;;6.80;;
17763;SDS011;22245;52.832;13.816;2023-08-06T10:36:28;9.52;;;7.10;;
17763;SDS011;22245;52.832;13.816;2023-08-06T10:39:57;9.52;;;7.10;;
17763;SDS011;22245;52.832;13.816;2023-08-06T10:43:24;9.23;;;6.88;;
17763;SDS011;22245;52.832;13.816;2023-08-06T10:46:48;8.38;;;6.75;;
17763;SDS011;22245;52.832;13.816;2023-08-06T10:50:12;11.38;;;6.43;;
17763;SDS011;22245;52.832;13.816;2023-08-06T10:53:37;8.90;;;6.20;;
17763;SDS011;22245;52.832;13.816;2023-08-06T10:57:03;9.02;;;6.47;;
17763;SDS011;22245;52.832;13.816;2023-08-06T11:00:30;9.25;;;6.45;;
17763;SDS011;22245;52.832;13.816;2023-08-06T11:03:52;8.70;;;5.88;;
17763;SDS011;22245;52.832;13.816;2023-08-06T11:07:15;9.48;;;6.40;;
17763;SDS011;22245;52.832;13.816;2023-08-06T11:10:38;10.13;;;6.05;;
17763;SDS011;22245;52.832;13.816;2023-08-06T11:14:16;7.55;;;5.95;;
17763;SDS011;22245;52.832;13.816;2023-08-06T11:17:37;8.05;;;6.00;;
17763;SDS011;22245;52.832;13.816;2023-08-06T11:21:01;7.53;;;5.93;;
17763;SDS011;22245;52.832;13.816;2023-08-06T11:24:23;9.57;;;5.80;;
17763;SDS011;22245;52.832;13.816;2023-08-06T11:27:45;7.05;;;5.35;;
17763;SDS011;22245;52.832;13.816;2023-08-06T11:31:08;9.15;;;6.43;;
17763;SDS011;22245;52.832;13.816;2023-08-06T11:34:40;9.68;;;5.57;;
17763;SDS011;22245;52.832;13.816;2023-08-06T11:38:01;7.07;;;5.45;;
17763;SDS011;22245;52.832;13.816;2023-08-06T11:41:23;9.52;;;5.28;;
17763;SDS011;22245;52.832;13.816;2023-08-06T11:44:45;6.57;;;5.13;;
17763;SDS011;22245;52.832;13.816;2023-08-06T11:48:08;7.30;;;5.68;;
17763;SDS011;22245;52.832;13.816;2023-08-06T11:51:32;7.80;;;5.15;;
17763;SDS011;22245;52.832;13.816;2023-08-06T11:55:00;5.82;;;4.93;;
17763;SDS011;22245;52.832;13.816;2023-08-06T11:58:24;5.78;;;4.82;;
17763;SDS011;22245;52.832;13.816;2023-08-06T12:01:45;7.22;;;4.82;;
17763;SDS011;22245;52.832;13.816;2023-08-06T12:05:11;7.18;;;4.70;;
17763;SDS011;22245;52.832;13.816;2023-08-06T12:08:34;7.75;;;4.80;;
17763;SDS011;22245;52.832;13.816;2023-08-06T12:11:58;6.32;;;4.47;;
17763;SDS011;22245;52.832;13.816;2023-08-06T12:15:19;6.63;;;4.80;;
17763;SDS011;22245;52.832;13.816;2023-08-06T12:18:42;5.45;;;3.90;;
17763;SDS011;22245;52.832;13.816;2023-08-06T12:22:05;8.18;;;4.75;;
17763;SDS011;22245;52.832;13.816;2023-08-06T12:25:27;5.85;;;4.38;;
17763;SDS011;22245;52.832;13.816;2023-08-06T12:28:49;5.28;;;3.90;;
17763;SDS011;22245;52.832;13.816;2023-08-06T12:32:10;5.40;;;3.92;;
17763;SDS011;22245;52.832;13.816;2023-08-06T12:35:32;3.95;;;3.40;;
17763;SDS011;22245;52.832;13.816;2023-08-06T12:38:56;3.90;;;3.50;;
17763;SDS011;22245;52.832;13.816;2023-08-06T12:42:18;4.50;;;3.58;;
17763;SDS011;22245;52.832;13.816;2023-08-06T12:45:39;4.45;;;3.38;;
17763;SDS011;22245;52.832;13.816;2023-08-06T12:49:01;4.05;;;2.50;;
17763;SDS011;22245;52.832;13.816;2023-08-06T12:52:22;2.92;;;2.47;;
17763;SDS011;22245;52.832;13.816;2023-08-06T12:55:45;4.90;;;2.40;;
17763;SDS011;22245;52.832;13.816;2023-08-06T12:59:06;3.40;;;2.45;;
17763;SDS011;22245;52.832;13.816;2023-08-06T13:02:27;6.25;;;3.80;;
17763;SDS011;22245;52.832;13.816;2023-08-06T13:05:50;7.20;;;4.18;;
17763;SDS011;22245;52.832;13.816;2023-08-06T13:09:12;2.80;;;2.50;;
17763;SDS011;22245;52.832;13.816;2023-08-06T13:12:35;3.10;;;2.33;;
17763;SDS011;22245;52.832;13.816;2023-08-06T13:15:56;2.70;;;2.50;;
17763;SDS011;22245;52.832;13.816;2023-08-06T13:19:18;4.18;;;3.03;;
17763;SDS011;22245;52.832;13.816;2023-08-06T13:22:40;4.35;;;2.80;;
17763;SDS011;22245;52.832;13.816;2023-08-06T13:26:01;5.95;;;3.00;;
17763;SDS011;22245;52.832;13.816;2023-08-06T13:29:24;4.30;;;2.50;;
17763;SDS011;22245;52.832;13.816;2023-08-06T13:32:47;3.75;;;3.10;;
17763;SDS011;22245;52.832;13.816;2023-08-06T13:36:09;4.07;;;3.00;;
17763;SDS011;22245;52.832;13.816;2023-08-06T13:39:31;3.08;;;2.50;;
17763;SDS011;22245;52.832;13.816;2023-08-06T13:42:53;4.03;;;3.10;;
17763;SDS011;22245;52.832;13.816;2023-08-06T13:46:17;3.85;;;3.25;;
17763;SDS011;22245;52.832;13.816;2023-08-06T13:49:40;3.42;;;2.80;;
17763;SDS011;22245;52.832;13.816;2023-08-06T13:53:02;3.70;;;2.90;;
17763;SDS011;22245;52.832;13.816;2023-08-06T13:56:24;4.85;;;2.95;;
17763;SDS011;22245;52.832;13.816;2023-08-06T13:59:45;4.05;;;2.72;;
17763;SDS011;22245;52.832;13.816;2023-08-06T14:03:08;3.72;;;2.58;;
17763;SDS011;22245;52.832;13.816;2023-08-06T14:06:30;3.10;;;2.80;;
17763;SDS011;22245;52.832;13.816;2023-08-06T14:09:52;3.58;;;2.90;;
17763;SDS011;22245;52.832;13.816;2023-08-06T14:13:13;3.65;;;2.70;;
17763;SDS011;22245;52.832;13.816;2023-08-06T14:16:34;4.22;;;2.55;;
17763;SDS011;22245;52.832;13.816;2023-08-06T14:19:58;3.50;;;2.70;;
17763;SDS011;22245;52.832;13.816;2023-08-06T14:23:20;5.85;;;2.92;;
17763;SDS011;22245;52.832;13.816;2023-08-06T14:26:41;3.50;;;2.70;;
17763;SDS011;22245;52.832;13.816;2023-08-06T14:30:03;5.78;;;2.88;;
17763;SDS011;22245;52.832;13.816;2023-08-06T14:33:26;4.75;;;2.67;;
17763;SDS011;22245;52.832;13.816;2023-08-06T14:36:49;4.05;;;2.65;;
17763;SDS011;22245;52.832;13.816;2023-08-06T14:40:12;3.55;;;2.60;;
17763;SDS011;22245;52.832;13.816;2023-08-06T14:43:34;4.20;;;2.63;;
17763;SDS011;22245;52.832;13.816;2023-08-06T14:46:55;2.97;;;2.50;;
17763;SDS011;22245;52.832;13.816;2023-08-06T14:50:18;5.82;;;2.67;;
17763;SDS011;22245;52.832;13.816;2023-08-06T14:53:40;4.05;;;2.80;;
17763;SDS011;22245;52.832;13.816;2023-08-06T14:57:02;8.05;;;3.05;;
17763;SDS011;22245;52.832;13.816;2023-08-06T15:00:25;3.60;;;2.67;;
17763;SDS011;22245;52.832;13.816;2023-08-06T15:03:46;4.65;;;2.47;;
17763;SDS011;22245;52.832;13.816;2023-08-06T15:07:07;3.75;;;2.60;;
17763;SDS011;22245;52.832;13.816;2023-08-06T15:10:32;3.22;;;2.10;;
17763;SDS011;22245;52.832;13.816;2023-08-06T15:13:53;2.42;;;2.00;;
17763;SDS011;22245;52.832;13.816;2023-08-06T15:17:15;2.60;;;2.10;;
17763;SDS011;22245;52.832;13.816;2023-08-06T15:20:36;2.85;;;2.08;;
17763;SDS011;22245;52.832;13.816;2023-08-06T15:23:57;5.28;;;2.40;;
17763;SDS011;22245;52.832;13.816;2023-08-06T15:27:21;2.45;;;2.25;;
17763;SDS011;22245;52.832;13.816;2023-08-06T15:30:44;6.18;;;2.38;;
17763;SDS011;22245;52.832;13.816;2023-08-06T15:34:10;3.25;;;2.47;;
17763;SDS011;22245;52.832;13.816;2023-08-06T15:37:31;4.78;;;2.17;;
17763;SDS011;22245;52.832;13.816;2023-08-06T15:40:53;4.88;;;2.28;;
17763;SDS011;22245;52.832;13.816;2023-08-06T15:44:16;3.10;;;2.10;;
17763;SDS011;22245;52.832;13.816;2023-08-06T15:47:38;2.83;;;2.00;;
17763;SDS011;22245;52.832;13.816;2023-08-06T15:51:00;2.58;;;1.90;;
17763;SDS011;22245;52.832;13.816;2023-08-06T15:54:23;4.18;;;2.35;;
17763;SDS011;22245;52.832;13.816;2023-08-06T15:57:45;4.95;;;2.38;;
17763;SDS011;22245;52.832;13.816;2023-08-06T16:01:08;3.13;;;2.20;;
17763;SDS011;22245;52.832;13.816;2023-08-06T16:04:30;4.65;;;2.42;;
17763;SDS011;22245;52.832;13.816;2023-08-06T16:07:52;4.05;;;2.78;;
17763;SDS011;22245;52.832;13.816;2023-08-06T16:11:14;4.68;;;2.85;;
17763;SDS011;22245;52.832;13.816;2023-08-06T16:14:37;2.88;;;2.10;;
17763;SDS011;22245;52.832;13.816;2023-08-06T16:18:03;4.53;;;2.40;;
17763;SDS011;22245;52.832;13.816;2023-08-06T16:21:25;4.88;;;2.75;;
17763;SDS011;22245;52.832;13.816;2023-08-06T16:24:47;5.80;;;3.50;;
17763;SDS011;22245;52.832;13.816;2023-08-06T16:28:13;4.15;;;2.58;;
17763;SDS011;22245;52.832;13.816;2023-08-06T16:31:34;4.55;;;2.83;;
17763;SDS011;22245;52.832;13.816;2023-08-06T16:34:58;4.38;;;2.97;;
17763;SDS011;22245;52.832;13.816;2023-08-06T16:38:20;5.05;;;3.17;;
17763;SDS011;22245;52.832;13.816;2023-08-06T16:41:43;3.25;;;2.63;;
17763;SDS011;22245;52.832;13.816;2023-08-06T16:45:05;3.20;;;2.72;;
17763;SDS011;22245;52.832;13.816;2023-08-06T16:48:28;3.45;;;2.65;;
17763;SDS011;22245;52.832;13.816;2023-08-06T16:51:52;6.10;;;2.95;;
17763;SDS011;22245;52.832;13.816;2023-08-06T16:55:14;3.10;;;2.28;;
17763;SDS011;22245;52.832;13.816;2023-08-06T16:58:38;4.40;;;2.83;;
17763;SDS011;22245;52.832;13.816;2023-08-06T17:01:59;4.35;;;2.78;;
17763;SDS011;22245;52.832;13.816;2023-08-06T17:05:21;3.95;;;2.72;;
17763;SDS011;22245;52.832;13.816;2023-08-06T17:08:44;4.35;;;2.50;;
17763;SDS011;22245;52.832;13.816;2023-08-06T17:12:06;4.78;;;2.45;;
17763;SDS011;22245;52.832;13.816;2023-08-06T17:15:28;3.70;;;2.53;;
17763;SDS011;22245;52.832;13.816;2023-08-06T17:18:49;3.47;;;2.50;;
17763;SDS011;22245;52.832;13.816;2023-08-06T17:22:11;3.60;;;2.70;;
17763;SDS011;22245;52.832;13.816;2023-08-06T17:25:34;5.90;;;2.90;;
17763;SDS011;22245;52.832;13.816;2023-08-06T17:28:56;4.85;;;3.00;;
17763;SDS011;22245;52.832;13.816;2023-08-06T17:32:18;3.95;;;2.72;;
17763;SDS011;22245;52.832;13.816;2023-08-06T17:35:40;3.47;;;2.88;;
17763;SDS011;22245;52.832;13.816;2023-08-06T17:39:03;5.18;;;2.95;;
17763;SDS011;22245;52.832;13.816;2023-08-06T17:42:27;5.07;;;3.00;;
17763;SDS011;22245;52.832;13.816;2023-08-06T17:45:49;4.20;;;3.25;;
17763;SDS011;22245;52.832;13.816;2023-08-06T17:49:10;5.65;;;3.00;;
17763;SDS011;22245;52.832;13.816;2023-08-06T17:52:32;3.90;;;3.00;;
17763;SDS011;22245;52.832;13.816;2023-08-06T17:55:54;5.88;;;3.00;;
17763;SDS011;22245;52.832;13.816;2023-08-06T17:59:17;4.07;;;3.05;;
17763;SDS011;22245;52.832;13.816;2023-08-06T18:02:39;6.07;;;4.60;;
17763;SDS011;22245;52.832;13.816;2023-08-06T18:06:01;7.15;;;3.15;;
17763;SDS011;22245;52.832;13.816;2023-08-06T18:09:22;4.72;;;3.53;;
17763;SDS011;22245;52.832;13.816;2023-08-06T18:12:44;7.40;;;3.50;;
17763;SDS011;22245;52.832;13.816;2023-08-06T18:16:07;8.40;;;3.75;;
17763;SDS011;22245;52.832;13.816;2023-08-06T18:19:29;4.82;;;3.03;;
17763;SDS011;22245;52.832;13.816;2023-08-06T18:22:51;5.63;;;3.10;;
17763;SDS011;22245;52.832;13.816;2023-08-06T18:26:12;4.30;;;2.40;;
17763;SDS011;22245;52.832;13.816;2023-08-06T18:29:34;2.63;;;2.25;;
17763;SDS011;22245;52.832;13.816;2023-08-06T18:32:57;3.70;;;2.20;;
17763;SDS011;22245;52.832;13.816;2023-08-06T18:36:19;5.45;;;2.30;;
17763;SDS011;22245;52.832;13.816;2023-08-06T18:39:41;2.65;;;2.08;;
17763;SDS011;22245;52.832;13.816;2023-08-06T18:43:03;3.40;;;1.52;;
17763;SDS011;22245;52.832;13.816;2023-08-06T18:46:25;2.42;;;1.55;;
17763;SDS011;22245;52.832;13.816;2023-08-06T18:49:48;1.63;;;1.30;;
17763;SDS011;22245;52.832;13.816;2023-08-06T18:53:09;1.75;;;1.38;;
17763;SDS011;22245;52.832;13.816;2023-08-06T18:56:31;1.92;;;1.20;;
17763;SDS011;22245;52.832;13.816;2023-08-06T18:59:53;1.67;;;1.33;;
17763;SDS011;22245;52.832;13.816;2023-08-06T19:03:15;2.38;;;1.45;;
17763;SDS011;22245;52.832;13.816;2023-08-06T19:06:38;2.45;;;1.45;;
17763;SDS011;22245;52.832;13.816;2023-08-06T19:10:00;2.40;;;1.25;;
17763;SDS011;22245;52.832;13.816;2023-08-06T19:13:24;1.52;;;1.17;;
17763;SDS011;22245;52.832;13.816;2023-08-06T19:16:46;2.20;;;1.55;;
17763;SDS011;22245;52.832;13.816;2023-08-06T19:20:08;1.83;;;1.33;;
17763;SDS011;22245;52.832;13.816;2023-08-06T19:23:33;3.83;;;1.73;;
17763;SDS011;22245;52.832;13.816;2023-08-06T19:26:55;1.90;;;1.40;;
17763;SDS011;22245;52.832;13.816;2023-08-06T19:30:16;1.67;;;1.40;;
17763;SDS011;22245;52.832;13.816;2023-08-06T19:33:37;3.15;;;1.40;;
17763;SDS011;22245;52.832;13.816;2023-08-06T19:36:59;3.95;;;1.50;;
17763;SDS011;22245;52.832;13.816;2023-08-06T19:40:22;3.63;;;1.50;;
17763;SDS011;22245;52.832;13.816;2023-08-06T19:43:44;3.35;;;1.75;;
17763;SDS011;22245;52.832;13.816;2023-08-06T19:47:06;2.80;;;1.60;;
17763;SDS011;22245;52.832;13.816;2023-08-06T19:50:28;4.10;;;1.73;;
17763;SDS011;22245;52.832;13.816;2023-08-06T19:53:50;2.50;;;1.42;;
17763;SDS011;22245;52.832;13.816;2023-08-06T19:57:14;3.55;;;1.60;;